Time;durP1;ratioP1;P1;durP2;ratioP2;P2;SDS_P1;SDS_P2;PMS_P1;PMS_P2;Temp;Humidity;BMP_temperature;BMP_pressure;BME280_temperature;BME280_humidity;BME280_pressure;Samples;Min_cycle;Max_cycle;Signal;HPM_P1;HPM_P2
2022/12/17 13:06:52;;;;;;;15.27;13.77;;;16.30;50.20;16.80;101806.00;;;;4991848;28;20166;-43
2022/12/17 13:09:35;;;;;;;15.03;13.27;;;16.30;51.10;16.90;101814.00;;;;4999182;28;20188;-43
2022/12/17 13:12:01;;;;;;;16.17;14.60;;;16.30;51.50;16.90;101811.00;;;;4999892;28;20175;-43
2022/12/17 13:14:59;;;;;;;15.83;14.23;;;16.30;52.00;16.90;101812.00;;;;4998527;28;20177;-42
2022/12/17 13:17:33;;;;;;;15.40;14.00;;;16.30;52.20;16.90;101803.00;;;;5000603;28;20261;-43
2022/12/17 13:20:23;;;;;;;14.73;13.33;;;16.40;51.70;16.90;101812.00;;;;5009655;28;20274;-43
2022/12/17 13:23:12;;;;;;;14.63;13.23;;;16.40;51.60;17.00;101803.00;;;;5009424;28;20195;-43
2022/12/17 13:25:38;;;;;;;14.27;12.77;;;16.40;51.40;17.00;101802.00;;;;5009850;28;20801;-44
2022/12/17 13:28:04;;;;;;;13.87;12.47;;;16.40;51.10;17.00;101808.00;;;;4979499;28;20207;-44
2022/12/17 13:30:33;;;;;;;14.40;13.00;;;16.30;50.90;17.00;101802.00;;;;4990835;28;20215;-43
2022/12/17 13:33:18;;;;;;;13.23;11.83;;;16.30;50.70;17.00;101794.00;;;;4989211;28;20252;-44
2022/12/17 13:36:02;;;;;;;12.60;11.03;;;16.30;50.60;17.00;101785.00;;;;4989291;28;20157;-42
2022/12/17 13:39:02;;;;;;;13.33;10.87;;;16.30;50.40;17.00;101795.00;;;;4989662;28;20618;-42
2022/12/17 13:41:30;;;;;;;12.73;11.40;;;16.20;50.20;16.90;101776.00;;;;4990641;28;20207;-41
2022/12/17 13:44:11;;;;;;;11.73;10.60;;;16.30;50.20;16.90;101772.00;;;;4992113;28;20192;-43
2022/12/17 13:46:42;;;;;;;12.00;10.80;;;16.20;50.20;16.90;101794.00;;;;4992922;28;20153;-42
2022/12/17 13:49:28;;;;;;;11.20;10.03;;;16.20;50.40;16.90;101798.00;;;;4993922;28;20168;-44
2022/12/17 13:52:20;;;;;;;10.73;9.70;;;16.10;50.40;16.90;101799.00;;;;4993084;28;20187;-43
2022/12/17 13:54:46;;;;;;;11.00;9.97;;;16.20;50.60;16.90;101793.00;;;;4992548;28;20187;-44
2022/12/17 13:57:22;;;;;;;10.70;9.60;;;16.20;50.60;16.90;101796.00;;;;4993406;28;20270;-42
2022/12/17 14:00:01;;;;;;;10.80;9.80;;;16.10;50.60;16.90;101797.00;;;;4993341;28;20195;-43
2022/12/17 14:02:32;;;;;;;10.33;9.33;;;16.10;50.60;16.90;101798.00;;;;4992753;28;20851;-42
2022/12/17 14:05:00;;;;;;;9.87;8.87;;;16.10;50.80;16.90;101795.00;;;;4993432;28;20218;-43
2022/12/17 14:07:27;;;;;;;9.67;8.77;;;16.10;50.70;16.80;101792.00;;;;4993479;28;20245;-42
2022/12/17 14:09:53;;;;;;;9.77;8.87;;;16.10;50.70;16.80;101743.00;;;;4992883;28;20192;-43
2022/12/17 14:12:24;;;;;;;9.77;8.77;;;16.10;51.10;16.80;101789.00;;;;4976009;28;20176;-42
2022/12/17 14:14:58;;;;;;;9.87;8.97;;;16.00;51.60;16.80;101796.00;;;;4976400;28;20522;-43
2022/12/17 14:17:26;;;;;;;9.73;8.20;;;16.00;52.40;16.80;101778.00;;;;4991120;28;20772;-41
2022/12/17 14:20:00;;;;;;;9.70;8.80;;;16.00;52.70;16.80;101803.00;;;;4975506;28;20200;-43
2022/12/17 14:22:36;;;;;;;9.00;8.13;;;16.00;52.90;16.80;101801.00;;;;4991238;28;20579;-42
2022/12/17 14:25:03;;;;;;;8.90;8.10;;;16.00;52.80;16.80;101776.00;;;;4991483;28;20780;-43
2022/12/17 14:27:33;;;;;;;8.63;7.73;;;16.00;52.70;16.80;101801.00;;;;4981255;28;20175;-42
2022/12/17 14:30:00;;;;;;;9.00;8.10;;;15.90;52.60;16.70;101802.00;;;;5001323;28;20196;-42
2022/12/17 14:32:35;;;;;;;9.40;8.50;;;15.90;52.50;16.70;101802.00;;;;4996305;28;20179;-43
2022/12/17 14:35:02;;;;;;;9.33;8.30;;;15.90;52.60;16.70;101804.00;;;;4991234;28;20179;-43
2022/12/17 14:37:28;;;;;;;9.63;7.80;;;15.80;52.40;16.60;101802.00;;;;4991213;28;20695;-44
2022/12/17 14:40:03;;;;;;;8.03;7.23;;;15.80;52.50;16.60;101801.00;;;;4991474;28;20271;-43
2022/12/17 14:42:28;;;;;;;8.30;7.50;;;15.70;52.50;16.60;101803.00;;;;4974929;28;20203;-44
2022/12/17 14:45:14;;;;;;;8.83;7.97;;;15.70;52.00;16.60;101804.00;;;;4990725;28;20168;-44
2022/12/17 14:47:51;;;;;;;9.07;7.80;;;15.70;52.20;16.50;101808.00;;;;4988484;28;20212;-41
2022/12/17 14:50:17;;;;;;;9.50;8.00;;;15.70;52.20;16.50;101803.00;;;;4976461;28;20191;-44
2022/12/17 14:52:52;;;;;;;8.17;7.37;;;15.70;52.10;16.50;101807.00;;;;4992012;28;20847;-45
2022/12/17 14:55:37;;;;;;;7.90;7.10;;;15.60;52.00;16.50;101808.00;;;;4973332;28;20206;-42
2022/12/17 14:58:12;;;;;;;8.13;7.27;;;15.60;52.40;16.40;101813.00;;;;5011035;28;20214;-43
2022/12/17 15:01:07;;;;;;;8.30;7.50;;;15.60;52.40;16.40;101801.00;;;;5010570;28;20195;-44
2022/12/17 15:03:39;;;;;;;7.33;6.63;;;15.50;52.50;16.30;101796.00;;;;5009894;28;20192;-42
2022/12/17 15:06:06;;;;;;;7.43;6.80;;;15.50;52.30;16.30;101803.00;;;;5009230;28;20222;-43
2022/12/17 15:08:40;;;;;;;7.47;6.40;;;15.50;52.40;16.30;101801.00;;;;5010098;28;20649;-43
2022/12/17 15:11:05;;;;;;;7.53;6.83;;;15.40;52.20;16.30;101807.00;;;;5010381;28;20227;-42
2022/12/17 15:13:31;;;;;;;7.43;6.73;;;15.50;52.30;16.30;101808.00;;;;5010601;28;20229;-42
2022/12/17 15:15:57;;;;;;;7.37;6.67;;;15.40;52.20;16.20;101804.00;;;;5010920;28;20176;-43
2022/12/17 15:18:23;;;;;;;7.30;6.70;;;15.40;52.30;16.20;101801.00;;;;5010811;28;20179;-43
2022/12/17 15:20:48;;;;;;;7.40;6.70;;;15.30;52.10;16.20;101809.00;;;;5010758;28;20715;-42
2022/12/17 15:23:16;;;;;;;7.33;6.57;;;15.30;52.20;16.20;101808.00;;;;5011147;28;20191;-41
2022/12/17 15:25:42;;;;;;;7.03;6.33;;;15.30;52.20;16.20;101816.00;;;;5011041;28;20159;-42
2022/12/17 15:28:11;;;;;;;7.23;6.53;;;15.30;52.10;16.20;101815.00;;;;5010954;28;20500;-42
2022/12/17 15:30:38;;;;;;;7.23;6.37;;;15.30;52.20;16.10;101818.00;;;;5010755;28;20192;-43
2022/12/17 15:33:07;;;;;;;7.53;6.83;;;15.30;52.20;16.20;101820.00;;;;5010766;28;20179;-42
2022/12/17 15:35:33;;;;;;;7.20;6.50;;;15.30;52.30;16.20;101814.00;;;;5010767;28;20172;-42
2022/12/17 15:37:59;;;;;;;6.90;6.30;;;15.40;52.50;16.20;101810.00;;;;5011122;28;20176;-43
2022/12/17 15:40:25;;;;;;;7.13;6.53;;;15.40;52.40;16.20;101829.00;;;;5010961;28;20195;-43
2022/12/17 15:45:34;;;;;;;6.77;6.07;;;15.60;52.40;16.30;101832.00;;;;5010702;28;20178;-42
2022/12/17 15:48:00;;;;;;;6.47;5.80;;;15.60;52.40;16.30;101831.00;;;;5010945;28;20175;-43
2022/12/17 15:50:27;;;;;;;7.07;6.33;;;15.70;52.50;16.40;101828.00;;;;5012255;28;20183;-43
2022/12/17 15:52:52;;;;;;;6.77;6.10;;;15.70;52.50;16.40;101837.00;;;;5008239;28;20820;-44
2022/12/17 15:55:18;;;;;;;7.77;6.03;;;15.80;52.50;16.50;101839.00;;;;5012576;28;20183;-44
2022/12/17 15:57:44;;;;;;;6.60;6.00;;;15.90;52.60;16.50;101840.00;;;;5016437;28;20171;-43
2022/12/17 16:00:10;;;;;;;7.07;6.40;;;15.90;52.60;16.50;101846.00;;;;5023662;28;20265;-43
2022/12/17 16:02:36;;;;;;;8.50;6.87;;;15.90;52.60;16.60;101843.00;;;;5011069;28;20693;-43
2022/12/17 16:05:02;;;;;;;7.20;6.50;;;16.00;53.40;16.60;101853.00;;;;5010533;28;20175;-43
2022/12/17 16:07:28;;;;;;;6.97;6.27;;;16.00;53.70;16.60;101852.00;;;;5010551;28;20295;-44
2022/12/17 16:09:54;;;;;;;7.77;6.27;;;16.00;53.60;16.60;101841.00;;;;5009851;28;20218;-43
2022/12/17 16:12:19;;;;;;;6.80;6.20;;;16.00;53.50;16.60;101857.00;;;;5009243;28;20194;-44
2022/12/17 16:14:45;;;;;;;7.00;6.00;;;15.90;53.30;16.60;101859.00;;;;5009783;28;20229;-41
2022/12/17 16:17:11;;;;;;;6.67;6.03;;;15.90;53.30;16.60;101851.00;;;;5009694;28;20786;-42
2022/12/17 16:19:36;;;;;;;6.40;5.80;;;15.90;53.30;16.60;101858.00;;;;5010117;28;20680;-42
2022/12/17 16:22:02;;;;;;;6.67;5.83;;;15.90;53.10;16.60;101848.00;;;;5017270;28;20171;-42
2022/12/17 16:24:28;;;;;;;6.73;6.03;;;15.90;52.90;16.60;101846.00;;;;5016623;28;20164;-42
2022/12/17 16:26:54;;;;;;;6.47;5.80;;;16.00;52.70;16.60;101862.00;;;;5022578;28;20201;-42
2022/12/17 16:29:20;;;;;;;7.77;5.47;;;15.90;52.60;16.60;101863.00;;;;5030218;28;20195;-43
2022/12/17 16:31:45;;;;;;;6.07;5.47;;;15.90;52.50;16.60;101857.00;;;;5013720;28;20704;-42
2022/12/17 16:34:12;;;;;;;5.90;5.40;;;15.90;52.40;16.60;101874.00;;;;5010545;28;20736;-44
2022/12/17 16:36:38;;;;;;;6.03;5.47;;;15.90;52.40;16.60;101859.00;;;;5011946;28;20183;-43
2022/12/17 16:39:04;;;;;;;6.23;5.63;;;15.90;52.60;16.60;101871.00;;;;5025291;28;20179;-43
2022/12/17 16:41:29;;;;;;;6.40;5.77;;;15.90;52.80;16.60;101859.00;;;;5031082;28;20167;-43
2022/12/17 16:43:55;;;;;;;5.93;5.43;;;15.90;52.60;16.60;101861.00;;;;5030271;28;20186;-42
2022/12/17 16:46:35;;;;;;;6.03;5.50;;;15.90;52.40;16.60;101864.00;;;;5030456;28;20167;-44
2022/12/17 16:49:07;;;;;;;6.40;5.60;;;15.90;52.60;16.60;101870.00;;;;5034344;28;20178;-44
2022/12/17 16:51:33;;;;;;;7.33;5.83;;;15.90;52.90;16.70;101876.00;;;;5033240;28;20836;-43
2022/12/17 16:53:58;;;;;;;7.20;5.40;;;15.90;53.30;16.70;101861.00;;;;5029973;28;20240;-43
2022/12/17 16:56:26;;;;;;;6.77;5.70;;;15.90;53.80;16.70;101869.00;;;;5021461;28;20185;-41
2022/12/17 16:58:53;;;;;;;7.77;5.97;;;15.90;54.40;16.70;101869.00;;;;5030110;28;20195;-44
2022/12/17 17:01:20;;;;;;;6.17;5.57;;;15.90;54.50;16.70;101871.00;;;;5029973;28;20225;-43
2022/12/17 17:03:46;;;;;;;6.40;5.80;;;16.00;54.40;16.70;101887.00;;;;5030172;28;20586;-42
2022/12/17 17:06:11;;;;;;;6.80;5.90;;;16.00;54.40;16.70;101882.00;;;;5029905;28;20171;-43
2022/12/17 17:08:38;;;;;;;7.33;5.80;;;16.00;54.40;16.70;101883.00;;;;5030052;28;20257;-42
2022/12/17 17:11:20;;;;;;;7.67;5.63;;;16.00;54.60;16.70;101870.00;;;;5029755;28;20195;-42
2022/12/17 17:13:50;;;;;;;6.20;5.63;;;16.00;54.80;16.70;101875.00;;;;5030013;28;20163;-44
2022/12/17 17:16:18;;;;;;;6.80;5.43;;;16.00;55.10;16.70;101876.00;;;;5028737;28;20166;-42
2022/12/17 17:18:44;;;;;;;5.73;5.13;;;16.00;55.30;16.70;101884.00;;;;5031440;28;20248;-42
2022/12/17 17:21:19;;;;;;;5.70;5.17;;;16.00;55.40;16.70;101870.00;;;;5033418;28;20198;-44
2022/12/17 17:24:03;;;;;;;5.73;5.23;;;15.90;55.10;16.70;101872.00;;;;5032382;28;20277;-43
2022/12/17 17:26:30;;;;;;;5.83;5.33;;;15.90;55.10;16.60;101875.00;;;;4993693;28;20187;-43
2022/12/17 17:28:56;;;;;;;6.27;5.60;;;15.90;55.10;16.60;101879.00;;;;4995624;28;20175;-42
2022/12/17 17:31:22;;;;;;;6.23;5.63;;;15.80;54.90;16.60;101889.00;;;;5002654;28;20206;-43
2022/12/17 17:33:49;;;;;;;6.40;5.50;;;15.90;54.80;16.60;101883.00;;;;5003310;28;20623;-42
2022/12/17 17:36:26;;;;;;;5.87;5.30;;;15.90;54.70;16.60;101884.00;;;;4998480;28;20642;-43
2022/12/17 17:38:57;;;;;;;7.60;5.17;;;15.90;55.50;16.60;101888.00;;;;4994670;28;20165;-43
2022/12/17 17:41:25;;;;;;;5.63;5.13;;;15.90;55.10;16.60;101890.00;;;;4993734;28;20282;-41
2022/12/17 17:44:05;;;;;;;6.50;5.30;;;15.90;54.90;16.60;101904.00;;;;4995176;28;20212;-41
2022/12/17 17:46:31;;;;;;;6.17;5.30;;;15.80;54.70;16.60;101912.00;;;;5005583;28;20228;-42
2022/12/17 17:48:59;;;;;;;5.70;5.20;;;15.80;54.60;16.60;101901.00;;;;5016751;28;20191;-42
2022/12/17 17:51:27;;;;;;;5.80;5.30;;;15.80;54.60;16.60;101901.00;;;;5018417;28;20171;-43
2022/12/17 17:53:53;;;;;;;5.67;5.17;;;15.80;54.30;16.50;101891.00;;;;5013263;28;20187;-44
2022/12/17 17:56:30;;;;;;;6.93;5.20;;;15.80;54.10;16.50;101894.00;;;;5012457;28;20172;-43
2022/12/17 17:59:09;;;;;;;5.23;4.80;;;15.80;54.00;16.50;101894.00;;;;5012264;28;20186;-43
2022/12/17 18:01:43;;;;;;;5.80;5.30;;;15.80;53.80;16.50;101896.00;;;;5013407;28;20246;-44
2022/12/17 18:04:13;;;;;;;5.93;5.10;;;15.90;54.50;16.60;101894.00;;;;5012887;28;20215;-45
2022/12/17 18:06:40;;;;;;;5.60;5.10;;;15.90;53.80;16.50;101892.00;;;;5013000;28;20176;-42
2022/12/17 18:09:06;;;;;;;5.50;5.00;;;15.80;53.70;16.50;101895.00;;;;5013110;28;20645;-42
2022/12/17 18:11:32;;;;;;;5.60;5.10;;;15.80;53.70;16.50;101903.00;;;;5013247;28;20315;-43
2022/12/17 18:13:58;;;;;;;5.80;5.30;;;15.80;53.60;16.50;101894.00;;;;5012466;28;20172;-44
2022/12/17 18:16:31;;;;;;;5.73;5.23;;;15.80;53.40;16.50;101897.00;;;;5010946;28;20188;-43
2022/12/17 18:19:02;;;;;;;5.70;5.20;;;15.80;53.30;16.50;101898.00;;;;5010973;28;20221;-43
2022/12/17 18:21:28;;;;;;;5.20;4.80;;;15.80;53.30;16.50;101900.00;;;;5012801;28;20176;-43
2022/12/17 18:24:02;;;;;;;5.73;5.23;;;15.80;53.30;16.50;101896.00;;;;5012646;28;20208;-43
2022/12/17 18:26:31;;;;;;;5.77;5.17;;;15.80;53.30;16.50;101902.00;;;;5012446;28;20294;-44
2022/12/17 18:29:01;;;;;;;5.33;4.93;;;15.80;53.30;16.50;101897.00;;;;5020193;28;20183;-43
2022/12/17 18:31:27;;;;;;;5.50;5.00;;;15.80;53.30;16.50;101911.00;;;;5011159;28;20506;-43
2022/12/17 18:33:56;;;;;;;5.37;4.87;;;15.80;53.30;16.50;101897.00;;;;5012759;28;20191;-43
2022/12/17 18:36:28;;;;;;;5.50;5.00;;;15.80;53.30;16.50;101897.00;;;;5012655;28;20191;-44
2022/12/17 18:39:04;;;;;;;6.03;5.53;;;15.80;53.20;16.50;101909.00;;;;5029930;28;20179;-44
2022/12/17 18:44:15;;;;;;;5.60;5.10;;;15.80;52.90;16.50;101904.00;;;;5019403;28;20238;-42
2022/12/17 18:46:41;;;;;;;5.70;5.20;;;15.80;52.90;16.50;101892.00;;;;5010603;28;20195;-42
2022/12/17 18:49:09;;;;;;;6.80;5.00;;;15.80;52.70;16.50;101902.00;;;;5012332;28;20195;-41
2022/12/17 18:51:36;;;;;;;5.50;4.77;;;15.80;52.60;16.50;101903.00;;;;5012283;28;20237;-44
2022/12/17 18:54:03;;;;;;;6.47;4.80;;;15.80;52.50;16.50;101909.00;;;;5012516;28;20175;-42
2022/12/17 18:56:29;;;;;;;5.10;4.60;;;15.90;52.60;16.50;101910.00;;;;5012184;28;20245;-44
2022/12/17 18:58:55;;;;;;;6.17;5.10;;;16.00;52.70;16.60;101905.00;;;;5012161;28;20510;-44
2022/12/17 19:01:26;;;;;;;8.03;4.90;;;16.00;52.70;16.60;101902.00;;;;5011524;28;20201;-43
2022/12/17 19:03:52;;;;;;;5.50;5.00;;;16.20;52.90;16.70;101905.00;;;;5011890;28;20253;-42
2022/12/17 19:06:18;;;;;;;6.13;5.00;;;16.30;52.50;16.80;101914.00;;;;5011625;28;20183;-43
2022/12/17 19:08:44;;;;;;;6.03;4.77;;;16.40;52.10;16.80;101926.00;;;;5011868;28;20254;-43
2022/12/17 19:11:11;;;;;;;7.00;4.73;;;16.50;51.70;16.90;101913.00;;;;5010988;28;20576;-42
2022/12/17 19:13:36;;;;;;;4.87;4.40;;;16.70;51.60;17.00;101922.00;;;;5010043;28;20596;-42
2022/12/17 19:16:11;;;;;;;5.10;4.37;;;16.80;51.40;17.10;101924.00;;;;5011888;28;20206;-43
2022/12/17 19:18:37;;;;;;;5.10;4.47;;;16.90;51.50;17.10;101918.00;;;;5006659;28;20193;-42
2022/12/17 19:21:03;;;;;;;7.13;5.00;;;17.00;51.30;17.20;101922.00;;;;5010921;28;20565;-42
2022/12/17 19:23:31;;;;;;;4.70;4.20;;;17.10;51.30;17.30;101923.00;;;;5011175;28;20207;-43
2022/12/17 19:26:04;;;;;;;5.10;4.60;;;17.10;51.20;17.40;101924.00;;;;5003916;28;20180;-42
2022/12/17 19:28:30;;;;;;;7.40;4.70;;;17.20;51.30;17.50;101930.00;;;;4989771;28;20164;-45
2022/12/17 19:30:56;;;;;;;4.90;4.40;;;17.20;51.20;17.50;101918.00;;;;4991083;28;20192;-44
2022/12/17 19:33:22;;;;;;;4.70;4.30;;;17.20;51.20;17.50;101922.00;;;;4990500;28;20319;-43
2022/12/17 19:35:48;;;;;;;5.30;4.53;;;17.20;51.20;17.60;101832.00;;;;5003241;28;20187;-42
2022/12/17 19:38:13;;;;;;;4.73;4.17;;;17.30;51.30;17.60;101917.00;;;;5005157;28;20178;-42
2022/12/17 19:40:39;;;;;;;4.60;4.30;;;17.30;51.20;17.60;101920.00;;;;4999339;28;20203;-43
2022/12/17 19:43:05;;;;;;;4.70;4.30;;;17.30;51.20;17.70;101923.00;;;;4990843;28;20224;-43
2022/12/17 19:45:31;;;;;;;4.80;4.40;;;17.30;51.70;17.70;101927.00;;;;4991033;28;20207;-42
2022/12/17 19:47:57;;;;;;;4.87;4.10;;;17.30;52.10;17.70;101913.00;;;;4990078;28;20170;-43
2022/12/17 19:50:23;;;;;;;5.13;4.13;;;17.40;52.40;17.80;101923.00;;;;4995493;28;20200;-43
2022/12/17 19:52:48;;;;;;;5.63;4.47;;;17.40;52.20;17.60;101923.00;;;;5009752;28;20175;-43
2022/12/17 19:55:19;;;;;;;4.40;4.00;;;17.50;52.10;17.80;101926.00;;;;5010064;28;20177;-44
2022/12/17 19:57:45;;;;;;;4.63;4.23;;;17.40;52.00;17.80;101925.00;;;;5010667;28;20179;-43
2022/12/17 20:00:11;;;;;;;5.97;4.13;;;17.40;52.30;17.80;101924.00;;;;5009158;28;20199;-44
2022/12/17 20:02:37;;;;;;;4.70;4.30;;;17.40;52.00;17.90;101931.00;;;;5009895;28;20199;-45
2022/12/17 20:05:03;;;;;;;4.10;3.80;;;17.50;51.90;17.90;101925.00;;;;5010489;28;20719;-43
2022/12/17 20:07:28;;;;;;;4.50;4.07;;;17.50;51.80;17.90;101939.00;;;;5009874;28;20258;-43
2022/12/17 20:09:54;;;;;;;5.13;4.00;;;17.40;51.80;17.90;101945.00;;;;5009563;28;20557;-43
2022/12/17 20:12:20;;;;;;;5.10;3.70;;;17.40;52.20;17.90;101934.00;;;;5008835;28;20172;-43
2022/12/17 20:14:46;;;;;;;4.60;4.20;;;17.40;52.10;17.90;101940.00;;;;5002028;28;20177;-43
2022/12/17 20:17:12;;;;;;;5.57;4.10;;;17.40;51.90;17.90;101945.00;;;;4989503;28;20208;-43
2022/12/17 20:19:37;;;;;;;4.30;3.90;;;17.40;52.00;17.90;101948.00;;;;4989832;28;20260;-43
2022/12/17 20:22:04;;;;;;;4.00;3.70;;;17.40;51.90;17.90;101955.00;;;;4989623;28;20172;-43
2022/12/17 20:24:30;;;;;;;4.33;3.93;;;17.40;51.80;17.90;101952.00;;;;4994013;28;20257;-43
2022/12/17 20:26:55;;;;;;;4.67;3.97;;;17.40;51.70;17.90;101945.00;;;;5004267;28;20204;-44
2022/12/17 20:29:22;;;;;;;4.30;3.90;;;17.40;51.90;17.90;101955.00;;;;5001424;28;20418;-42
2022/12/17 20:31:49;;;;;;;4.23;3.83;;;17.40;51.80;17.90;101965.00;;;;4999782;28;20225;-43
2022/12/17 20:34:15;;;;;;;4.20;3.80;;;17.40;51.80;17.90;101968.00;;;;5002237;28;20211;-43
2022/12/17 20:36:42;;;;;;;4.60;3.77;;;17.40;51.60;17.90;101969.00;;;;5010449;28;20183;-44
2022/12/17 20:39:08;;;;;;;4.43;3.60;;;17.50;51.60;17.90;101961.00;;;;5008427;28;20658;-44
2022/12/17 20:41:35;;;;;;;4.90;3.83;;;17.50;51.60;17.70;101972.00;;;;5009858;28;20619;-43
2022/12/17 20:44:06;;;;;;;4.30;3.90;;;17.50;51.80;18.00;101984.00;;;;5010827;28;20203;-44
2022/12/17 20:46:32;;;;;;;4.40;3.87;;;17.40;51.60;18.00;101977.00;;;;5017749;28;20178;-42
2022/12/17 20:48:59;;;;;;;5.90;3.93;;;17.50;51.30;17.90;101971.00;;;;5016753;28;20175;-49
2022/12/17 20:51:26;;;;;;;4.83;3.90;;;17.40;50.80;17.90;101973.00;;;;5016096;28;20173;-42
2022/12/17 20:53:53;;;;;;;7.57;3.90;;;17.40;50.90;17.90;101965.00;;;;5009458;28;20171;-43
2022/12/17 20:56:21;;;;;;;5.73;4.47;;;17.40;51.00;17.90;101978.00;;;;5009720;28;20176;-43
2022/12/17 20:58:57;;;;;;;4.20;3.90;;;17.30;50.20;17.90;101987.00;;;;5009508;28;20180;-43
2022/12/17 21:01:24;;;;;;;5.97;4.47;;;17.20;49.70;17.80;101978.00;;;;5008531;28;20199;-43
2022/12/17 21:03:51;;;;;;;4.40;4.00;;;17.20;49.40;17.80;101979.00;;;;4904689;28;20334;-44
2022/12/17 21:06:19;;;;;;;4.83;4.33;;;17.10;49.30;17.80;101977.00;;;;5021853;28;20744;-43
2022/12/17 21:08:47;;;;;;;5.03;4.40;;;17.00;49.30;17.70;101991.00;;;;5008992;28;20164;-43
2022/12/17 21:11:14;;;;;;;5.07;4.10;;;17.00;49.20;17.70;101991.00;;;;5007359;28;20205;-42
2022/12/17 21:13:40;;;;;;;6.43;4.10;;;16.90;48.70;17.70;101992.00;;;;5009243;28;20210;-43
2022/12/17 21:16:10;;;;;;;6.10;4.43;;;16.90;48.70;17.60;101980.00;;;;5008832;28;20261;-43
2022/12/17 21:18:35;;;;;;;6.90;4.33;;;16.80;49.00;17.60;101975.00;;;;5008273;28;20195;-43
2022/12/17 21:21:10;;;;;;;4.77;3.97;;;16.80;49.20;17.60;101951.00;;;;5014960;28;20204;-43
2022/12/17 21:23:36;;;;;;;5.23;4.30;;;16.70;49.30;17.50;101989.00;;;;5027953;28;20654;-42
2022/12/17 21:26:19;;;;;;;6.33;3.90;;;16.60;49.20;17.50;101982.00;;;;5028695;28;20189;-43
2022/12/17 21:28:46;;;;;;;4.80;4.30;;;16.60;49.10;17.40;101984.00;;;;5029061;28;20162;-43
2022/12/17 21:31:31;;;;;;;6.23;4.13;;;16.50;49.00;17.40;101977.00;;;;5028467;28;20859;-42
2022/12/17 21:33:59;;;;;;;5.80;4.50;;;16.40;48.70;17.30;101984.00;;;;5027375;28;20179;-43
2022/12/17 21:36:26;;;;;;;5.07;4.40;;;16.40;48.50;17.30;101980.00;;;;5028357;28;20182;-42
2022/12/17 21:38:51;;;;;;;4.63;4.23;;;16.20;48.20;17.20;101986.00;;;;5029747;28;20266;-42
2022/12/17 21:41:22;;;;;;;4.90;4.13;;;16.20;48.00;17.20;101980.00;;;;5028468;28;20651;-44
2022/12/17 21:43:59;;;;;;;4.83;4.40;;;16.10;47.80;17.10;101985.00;;;;5027412;28;20199;-44
2022/12/17 21:46:26;;;;;;;4.70;4.30;;;16.10;47.70;17.00;101970.00;;;;5028699;28;20179;-44
2022/12/17 21:48:52;;;;;;;6.40;4.53;;;16.00;47.50;17.00;101975.00;;;;5029031;28;20557;-42
2022/12/17 21:51:18;;;;;;;4.87;4.33;;;16.00;47.50;17.00;101981.00;;;;5028354;28;20202;-43
2022/12/17 21:53:43;;;;;;;5.47;4.60;;;15.90;47.30;16.90;101975.00;;;;5027641;28;20183;-43
2022/12/17 21:56:14;;;;;;;4.80;4.40;;;15.80;47.10;16.90;101977.00;;;;5029218;28;20896;-43
2022/12/17 21:58:40;;;;;;;6.33;5.10;;;15.80;46.90;16.80;101984.00;;;;5003605;28;20585;-42
2022/12/17 22:01:12;;;;;;;5.03;4.60;;;15.80;46.70;16.80;101983.00;;;;5003990;28;20324;-42
2022/12/17 22:03:37;;;;;;;4.60;4.20;;;15.70;46.70;16.70;101994.00;;;;4858572;28;20250;-43
2022/12/17 22:06:08;;;;;;;5.10;4.60;;;15.70;46.70;16.70;101990.00;;;;4993203;28;20188;-42
2022/12/17 22:08:35;;;;;;;4.60;4.20;;;15.60;46.60;16.70;101989.00;;;;4996046;28;20841;-43
2022/12/17 22:11:15;;;;;;;4.63;4.23;;;15.60;46.60;16.60;102005.00;;;;5010171;28;20203;-44
2022/12/17 22:16:26;;;;;;;5.80;4.80;;;15.50;46.50;16.50;101989.00;;;;5018252;28;20167;-45
2022/12/17 22:18:51;;;;;;;4.80;4.30;;;15.40;46.20;16.50;101989.00;;;;5011517;28;20779;-44
2022/12/17 22:21:17;;;;;;;4.90;4.40;;;15.50;46.40;16.50;101990.00;;;;5011486;28;20208;-43
2022/12/17 22:23:47;;;;;;;6.07;4.50;;;15.50;46.40;16.50;101992.00;;;;5011822;28;20608;-43
2022/12/17 22:26:15;;;;;;;4.50;4.10;;;15.60;46.20;16.50;101995.00;;;;5011298;28;20251;-43
2022/12/17 22:28:42;;;;;;;5.53;4.17;;;15.60;46.20;16.50;101993.00;;;;5012021;28;20202;-42
2022/12/17 22:33:54;;;;;;;4.70;4.20;;;15.80;46.50;16.50;101989.00;;;;5010024;28;20171;-44
2022/12/17 22:36:20;;;;;;;5.03;4.10;;;15.90;46.40;16.60;101997.00;;;;5011085;28;20176;-44
2022/12/17 22:38:45;;;;;;;7.03;3.90;;;15.90;46.60;16.60;102007.00;;;;5012222;28;20183;-44
2022/12/17 22:43:28;;;;;;;6.93;3.97;;;16.00;46.90;16.60;101994.00;;;;5017195;28;20424;-43
2022/12/17 22:44:03;;;;;;;7.43;3.80;;;16.10;47.20;16.60;102002.00;;;;5013463;28;20215;-43
2022/12/17 22:46:30;;;;;;;7.93;3.90;;;16.10;47.60;16.70;102007.00;;;;5011376;28;20255;-44
2022/12/17 22:48:56;;;;;;;4.33;3.87;;;16.10;48.40;16.70;101978.00;;;;5011793;28;20190;-44
2022/12/17 22:51:24;;;;;;;3.97;3.57;;;16.20;48.10;16.70;101997.00;;;;5010036;28;20615;-43
2022/12/17 22:53:50;;;;;;;4.47;3.87;;;16.10;47.70;16.70;102008.00;;;;5009665;28;20179;-44
2022/12/17 22:56:16;;;;;;;5.93;3.70;;;16.20;48.20;16.80;102008.00;;;;5011461;28;20644;-43
2022/12/17 22:58:41;;;;;;;5.37;3.60;;;16.20;48.20;16.80;102012.00;;;;5010197;28;20187;-43
2022/12/17 23:01:07;;;;;;;6.70;3.80;;;16.20;48.30;16.80;102020.00;;;;5010826;28;20551;-44
2022/12/17 23:03:33;;;;;;;6.57;3.70;;;16.20;48.40;16.80;102016.00;;;;5011055;28;20232;-43
2022/12/17 23:06:11;;;;;;;4.73;3.70;;;16.10;48.10;16.80;102013.00;;;;5010542;28;20179;-44
2022/12/17 23:08:36;;;;;;;4.77;3.67;;;16.00;48.00;16.70;102020.00;;;;5010420;28;20251;-44
2022/12/17 23:11:14;;;;;;;5.00;3.40;;;16.10;48.00;16.70;102013.00;;;;5011313;28;20635;-44
2022/12/17 23:13:40;;;;;;;3.80;3.40;;;16.00;47.80;16.70;102017.00;;;;5011498;28;20621;-43
2022/12/17 23:16:07;;;;;;;7.50;3.67;;;16.00;47.80;16.50;102025.00;;;;5008876;28;20720;-43
2022/12/17 23:18:33;;;;;;;4.17;3.30;;;16.10;48.20;16.80;102024.00;;;;5009290;28;20372;-44
2022/12/17 23:21:22;;;;;;;5.53;3.43;;;16.10;48.00;16.80;102013.00;;;;5010845;28;20219;-42
2022/12/17 23:23:49;;;;;;;5.00;3.37;;;16.10;47.80;16.80;102006.00;;;;5009781;28;20215;-42
2022/12/17 23:26:27;;;;;;;4.07;3.30;;;16.10;47.80;16.70;102009.00;;;;5010005;28;20201;-42
2022/12/17 23:29:01;;;;;;;6.53;3.43;;;16.10;48.00;16.70;102006.00;;;;5011105;28;20160;-42
2022/12/17 23:31:31;;;;;;;5.23;3.60;;;16.00;47.80;16.70;102006.00;;;;5010940;28;20175;-43
2022/12/17 23:33:56;;;;;;;5.57;3.40;;;16.00;47.80;16.70;102007.00;;;;5011071;28;20686;-42
2022/12/17 23:36:23;;;;;;;3.60;3.30;;;16.00;47.90;16.70;102010.00;;;;5011009;28;20183;-43
2022/12/17 23:38:49;;;;;;;4.33;3.33;;;15.90;47.90;16.60;102013.00;;;;5011469;28;20661;-43
2022/12/17 23:41:23;;;;;;;3.97;3.30;;;15.90;48.00;16.60;102011.00;;;;5010441;28;20206;-43
2022/12/17 23:43:49;;;;;;;3.50;3.20;;;15.90;48.10;16.60;102012.00;;;;5010934;28;20793;-43
2022/12/17 23:46:16;;;;;;;3.60;3.30;;;15.80;48.10;16.60;102001.00;;;;5010990;28;20176;-41
2022/12/17 23:48:42;;;;;;;3.50;3.20;;;15.70;48.20;16.50;102005.00;;;;5009833;28;20207;-43
2022/12/17 23:51:08;;;;;;;3.53;3.23;;;15.70;48.20;16.50;102006.00;;;;5010819;28;20195;-41
2022/12/17 23:53:34;;;;;;;3.60;3.20;;;15.70;48.20;16.50;102012.00;;;;5009383;28;20176;-41
2022/12/17 23:56:11;;;;;;;3.37;3.07;;;15.60;48.20;16.50;102011.00;;;;5010722;28;20186;-44
2022/12/17 23:58:38;;;;;;;3.40;3.10;;;15.60;48.30;16.40;102008.00;;;;5010866;28;20170;-42
